createdAt,value
2018-12-21T00:00:29.667Z,1005.57
2018-12-21T00:01:29.654Z,1005.54
2018-12-21T00:02:29.627Z,1005.61
2018-12-21T00:03:29.616Z,1005.61
2018-12-21T00:04:29.604Z,1005.62
2018-12-21T00:05:29.605Z,1005.64
2018-12-21T00:06:29.621Z,1005.54
2018-12-21T00:07:29.590Z,1005.65
2018-12-21T00:08:29.613Z,1005.63
2018-12-21T00:09:29.587Z,1005.65
2018-12-21T00:10:29.580Z,1005.68
2018-12-21T00:11:29.586Z,1005.63
2018-12-21T00:12:29.584Z,1005.63
2018-12-21T00:13:29.552Z,1005.62
2018-12-21T00:14:29.565Z,1005.62
2018-12-21T00:15:29.586Z,1005.64
2018-12-21T00:16:29.529Z,1005.61
2018-12-21T00:17:34.473Z,1005.60
2018-12-21T00:18:29.507Z,1005.61
2018-12-21T00:19:29.486Z,1005.62
2018-12-21T00:20:29.497Z,1005.63
2018-12-21T00:21:29.478Z,1005.65
2018-12-21T00:22:29.463Z,1005.64
2018-12-21T00:23:29.496Z,1005.68
2018-12-21T00:24:29.457Z,1005.67
2018-12-21T00:25:29.492Z,1005.60
2018-12-21T00:26:29.456Z,1005.61
2018-12-21T00:27:29.438Z,1005.59
2018-12-21T00:28:29.447Z,1005.62
2018-12-21T00:29:29.473Z,1005.64
2018-12-21T00:30:29.425Z,1005.57
2018-12-21T00:31:29.436Z,1005.58
2018-12-21T00:32:29.399Z,1005.59
2018-12-21T00:33:29.424Z,1005.50
2018-12-21T00:34:29.401Z,1005.55
2018-12-21T00:35:29.396Z,1005.54
2018-12-21T00:36:29.373Z,1005.41
2018-12-21T00:37:29.354Z,1005.33
2018-12-21T00:38:29.377Z,1005.27
2018-12-21T00:39:29.352Z,1005.33
2018-12-21T00:40:29.329Z,1005.29
2018-12-21T00:41:29.329Z,1005.37
2018-12-21T00:42:29.380Z,1005.25
2018-12-21T00:43:29.338Z,1005.25
2018-12-21T00:44:29.302Z,1005.32
2018-12-21T00:45:29.305Z,1005.30
2018-12-21T00:46:29.325Z,1005.29
2018-12-21T00:47:29.414Z,1005.27
2018-12-21T00:48:29.277Z,1005.19
2018-12-21T00:49:29.338Z,1005.20
2018-12-21T00:50:29.265Z,1005.19
2018-12-21T00:51:30.302Z,1005.11
2018-12-21T00:52:29.264Z,1005.14
2018-12-21T00:53:29.258Z,1005.17
2018-12-21T00:54:29.278Z,1005.18
2018-12-21T00:55:29.261Z,1005.18
2018-12-21T00:56:29.211Z,1005.08
2018-12-21T00:57:29.272Z,1005.13
2018-12-21T00:58:29.216Z,1005.07
2018-12-21T00:59:29.228Z,1005.08
2018-12-21T01:00:29.203Z,1004.98
2018-12-21T01:01:29.219Z,1005.01
2018-12-21T01:02:29.190Z,1004.90
2018-12-21T01:03:29.219Z,1004.93
2018-12-21T01:04:29.177Z,1004.91
2018-12-21T01:05:29.196Z,1004.93
2018-12-21T01:06:29.189Z,1004.92
2018-12-21T01:07:29.202Z,1004.91
2018-12-21T01:08:37.904Z,1004.88
2018-12-21T01:10:34.727Z,1004.95
2018-12-21T01:11:34.655Z,1004.98
2018-12-21T01:12:34.668Z,1005.02
2018-12-21T01:13:34.839Z,1005.07
2018-12-21T01:14:34.606Z,1005.04
2018-12-21T01:15:34.581Z,1005.05
2018-12-21T01:16:34.573Z,1005.08
2018-12-21T01:17:34.604Z,1005.11
2018-12-21T01:18:34.565Z,1005.12
2018-12-21T01:19:34.577Z,1005.15
2018-12-21T01:20:34.602Z,1005.20
2018-12-21T01:21:38.660Z,1005.12
2018-12-21T01:22:34.610Z,1005.16
2018-12-21T01:23:34.535Z,1005.17
2018-12-21T01:24:34.532Z,1005.16
2018-12-21T01:25:34.537Z,1005.12
2018-12-21T01:26:34.530Z,1005.08
2018-12-21T01:27:34.496Z,1005.12
2018-12-21T01:28:34.502Z,1005.15
2018-12-21T01:29:34.513Z,1005.15
2018-12-21T01:30:34.518Z,1005.20
2018-12-21T01:31:34.492Z,1005.21
2018-12-21T01:32:34.484Z,1005.18
2018-12-21T01:33:34.480Z,1005.09
2018-12-21T01:34:34.474Z,1005.08
2018-12-21T01:35:34.439Z,1005.15
2018-12-21T01:36:34.428Z,1005.12
2018-12-21T01:37:34.423Z,1005.08
2018-12-21T01:38:34.487Z,1005.11
2018-12-21T01:39:34.427Z,1005.09
2018-12-21T01:40:34.405Z,1005.12
2018-12-21T01:41:34.414Z,1005.04
2018-12-21T01:42:34.382Z,1005.14
2018-12-21T01:43:34.409Z,1005.07
2018-12-21T01:44:34.375Z,1005.00
2018-12-21T01:45:34.382Z,1005.04
2018-12-21T01:46:34.375Z,1005.04
2018-12-21T01:47:34.396Z,1004.97
2018-12-21T01:48:34.349Z,1004.98
2018-12-21T01:49:34.381Z,1005.02
2018-12-21T01:50:34.337Z,1004.92
2018-12-21T01:51:34.325Z,1004.95
2018-12-21T01:52:34.324Z,1004.87
2018-12-21T01:53:34.308Z,1004.94
2018-12-21T01:54:34.316Z,1004.93
2018-12-21T01:55:34.316Z,1004.91
2018-12-21T01:56:34.319Z,1004.91
2018-12-21T01:59:14.805Z,1004.85
2018-12-21T02:00:24.350Z,1004.89
2018-12-21T02:02:19.257Z,1004.88
2018-12-21T02:03:19.166Z,1004.86
2018-12-21T02:04:19.173Z,1004.79
2018-12-21T02:05:19.158Z,1004.81
2018-12-21T02:06:19.160Z,1004.71
2018-12-21T02:07:19.144Z,1004.73
2018-12-21T02:08:19.245Z,1004.71
2018-12-21T02:09:19.109Z,1004.74
2018-12-21T02:10:19.127Z,1004.66
2018-12-21T02:11:19.096Z,1004.64
2018-12-21T02:12:19.091Z,1004.56
2018-12-21T02:13:19.098Z,1004.63
2018-12-21T02:14:19.102Z,1004.58
2018-12-21T02:15:19.062Z,1004.60
2018-12-21T02:16:19.061Z,1004.58
2018-12-21T02:17:19.069Z,1004.54
2018-12-21T02:18:19.076Z,1004.54
2018-12-21T02:19:19.072Z,1004.61
2018-12-21T02:20:19.036Z,1004.56
2018-12-21T02:21:19.062Z,1004.59
2018-12-21T02:22:19.025Z,1004.55
2018-12-21T02:23:19.068Z,1004.60
2018-12-21T02:24:19.004Z,1004.60
2018-12-21T02:25:19.001Z,1004.65
2018-12-21T02:26:18.985Z,1004.61
2018-12-21T02:27:18.997Z,1004.61
2018-12-21T02:28:19.057Z,1004.57
2018-12-21T02:29:18.982Z,1004.56
2018-12-21T02:30:19.003Z,1004.53
2018-12-21T02:31:18.965Z,1004.60
2018-12-21T02:32:19.026Z,1004.61
2018-12-21T02:33:18.941Z,1004.55
2018-12-21T02:34:18.953Z,1004.54
2018-12-21T02:35:18.944Z,1004.52
2018-12-21T02:36:18.942Z,1004.52
2018-12-21T02:37:18.907Z,1004.41
2018-12-21T02:38:18.900Z,1004.42
2018-12-21T02:39:18.920Z,1004.44
2018-12-21T02:40:18.924Z,1004.39
2018-12-21T02:41:18.937Z,1004.40
2018-12-21T02:42:18.889Z,1004.35
2018-12-21T02:43:18.887Z,1004.34
2018-12-21T02:44:18.926Z,1004.30
2018-12-21T02:45:18.895Z,1004.31
2018-12-21T02:46:18.871Z,1004.25
2018-12-21T02:47:18.929Z,1004.21
2018-12-21T02:48:18.851Z,1004.22
2018-12-21T02:49:18.858Z,1004.28
2018-12-21T02:50:18.859Z,1004.18
2018-12-21T02:51:18.816Z,1004.15
2018-12-21T02:52:18.802Z,1004.17
2018-12-21T02:53:18.823Z,1004.16
2018-12-21T02:54:18.791Z,1004.16
2018-12-21T02:55:18.812Z,1004.10
2018-12-21T02:56:18.796Z,1004.08
2018-12-21T03:14:09.938Z,1003.72
2018-12-21T03:15:09.940Z,1003.73
2018-12-21T03:16:09.954Z,1003.76
2018-12-21T03:17:09.892Z,1003.75
2018-12-21T03:18:09.854Z,1003.62
2018-12-21T03:19:09.883Z,1003.70
2018-12-21T03:20:09.850Z,1003.53
2018-12-21T03:21:09.879Z,1003.59
2018-12-21T03:22:14.550Z,1003.51
2018-12-21T03:23:09.863Z,1003.51
2018-12-21T03:24:09.805Z,1003.53
2018-12-21T03:25:09.807Z,1003.48
2018-12-21T03:26:09.794Z,1003.49
2018-12-21T03:27:09.772Z,1003.44
2018-12-21T03:28:09.799Z,1003.39
2018-12-21T03:29:09.756Z,1003.34
2018-12-21T03:30:09.796Z,1003.27
2018-12-21T03:31:09.762Z,1003.29
2018-12-21T03:32:09.746Z,1003.25
2018-12-21T03:33:09.726Z,1003.20
2018-12-21T03:34:09.731Z,1003.17
2018-12-21T03:35:09.717Z,1003.11
2018-12-21T03:36:09.712Z,1003.12
2018-12-21T03:37:09.720Z,1003.13
2018-12-21T03:38:09.727Z,1003.07
2018-12-21T03:39:09.699Z,1002.95
2018-12-21T03:40:09.668Z,1002.92
2018-12-21T03:41:09.682Z,1002.89
2018-12-21T03:42:09.666Z,1002.87
2018-12-21T03:43:09.691Z,1002.83
2018-12-21T03:44:09.674Z,1002.83
2018-12-21T03:45:09.646Z,1002.81
2018-12-21T03:46:09.657Z,1002.81
2018-12-21T03:47:09.638Z,1002.79
2018-12-21T03:48:09.635Z,1002.77
2018-12-21T03:49:09.656Z,1002.70
2018-12-21T03:50:09.638Z,1002.73
2018-12-21T03:51:09.629Z,1002.71
2018-12-21T03:52:09.596Z,1002.73
2018-12-21T03:53:09.621Z,1002.65
2018-12-21T03:54:09.580Z,1002.65
2018-12-21T03:55:09.588Z,1002.60
2018-12-21T03:56:09.602Z,1002.60
2018-12-21T03:57:09.588Z,1002.57
2018-12-21T03:58:09.559Z,1002.58
2018-12-21T03:59:09.542Z,1002.60
2018-12-21T04:00:09.528Z,1002.52
2018-12-21T04:01:09.592Z,1002.55
2018-12-21T04:02:09.520Z,1002.53
2018-12-21T04:03:09.510Z,1002.51
2018-12-21T04:04:09.586Z,1002.53
2018-12-21T04:05:09.490Z,1002.42
2018-12-21T04:06:09.493Z,1002.42
2018-12-21T04:07:09.509Z,1002.40
2018-12-21T04:08:09.480Z,1002.38
2018-12-21T04:09:09.469Z,1002.42
2018-12-21T04:10:09.529Z,1002.44
2018-12-21T04:11:09.492Z,1002.48
2018-12-21T04:12:09.449Z,1002.46
2018-12-21T04:13:09.449Z,1002.46
2018-12-21T04:14:09.455Z,1002.51
2018-12-21T04:15:09.417Z,1002.51
2018-12-21T04:16:09.423Z,1002.52
2018-12-21T04:17:09.518Z,1002.54
2018-12-21T04:18:09.411Z,1002.46
2018-12-21T04:19:09.429Z,1002.51
2018-12-21T04:20:09.412Z,1002.51
2018-12-21T04:21:09.403Z,1002.48
2018-12-21T04:22:09.373Z,1002.47
2018-12-21T04:23:09.407Z,1002.45
2018-12-21T04:24:09.398Z,1002.45
2018-12-21T04:25:09.407Z,1002.35
2018-12-21T04:26:09.349Z,1002.36
2018-12-21T04:27:09.345Z,1002.39
2018-12-21T04:28:09.380Z,1002.41
2018-12-21T04:29:09.350Z,1002.34
2018-12-21T04:30:09.362Z,1002.39
2018-12-21T04:31:09.311Z,1002.30
2018-12-21T04:32:09.300Z,1002.33
2018-12-21T04:33:09.294Z,1002.37
2018-12-21T04:34:09.343Z,1002.29
2018-12-21T04:35:09.305Z,1002.31
2018-12-21T04:36:09.305Z,1002.22
2018-12-21T04:37:09.286Z,1002.25
2018-12-21T04:38:09.259Z,1002.30
2018-12-21T04:39:09.255Z,1002.23
2018-12-21T04:40:09.255Z,1002.19
2018-12-21T04:41:09.247Z,1002.17
2018-12-21T04:42:09.294Z,1002.10
2018-12-21T04:43:09.254Z,1002.07
2018-12-21T04:44:09.224Z,1002.09
2018-12-21T04:45:09.268Z,1002.03
2018-12-21T04:46:09.234Z,1001.99
2018-12-21T04:47:09.223Z,1002.03
2018-12-21T04:48:09.218Z,1001.98
2018-12-21T04:49:09.204Z,1001.94
2018-12-21T04:50:09.186Z,1001.94
2018-12-21T04:51:09.166Z,1002.00
2018-12-21T04:52:09.176Z,1002.05
2018-12-21T04:53:09.207Z,1002.01
2018-12-21T04:54:09.185Z,1001.94
2018-12-21T04:55:09.144Z,1001.91
2018-12-21T04:56:09.174Z,1001.87
2018-12-21T04:57:09.183Z,1001.87
2018-12-21T04:58:09.182Z,1001.85
2018-12-21T04:59:09.770Z,1001.89
2018-12-21T05:00:09.154Z,1001.78
2018-12-21T05:01:18.017Z,1001.77
2018-12-21T05:03:13.761Z,1001.71
2018-12-21T05:04:19.678Z,1001.66
2018-12-21T05:05:13.579Z,1001.62
2018-12-21T05:06:13.606Z,1001.71
2018-12-21T05:07:13.724Z,1001.64
2018-12-21T05:08:13.563Z,1001.73
2018-12-21T05:09:13.535Z,1001.69
2018-12-21T05:10:13.533Z,1001.70
2018-12-21T05:11:13.592Z,1001.67
2018-12-21T05:12:13.518Z,1001.77
2018-12-21T05:13:13.511Z,1001.76
2018-12-21T05:14:13.508Z,1001.74
2018-12-21T05:15:13.525Z,1001.75
2018-12-21T05:16:13.490Z,1001.69
2018-12-21T05:17:13.545Z,1001.68
2018-12-21T05:18:13.498Z,1001.81
2018-12-21T05:19:13.506Z,1001.80
2018-12-21T05:20:13.490Z,1001.80
2018-12-21T05:21:13.465Z,1001.79
2018-12-21T05:22:13.468Z,1001.82
2018-12-21T05:23:13.463Z,1001.79
2018-12-21T05:24:13.487Z,1001.87
2018-12-21T05:25:13.433Z,1001.85
2018-12-21T05:26:13.427Z,1001.84
2018-12-21T05:27:13.450Z,1002.02
2018-12-21T05:28:13.406Z,1001.80
2018-12-21T05:29:13.428Z,1001.89
2018-12-21T05:30:13.441Z,1001.89
2018-12-21T05:31:13.413Z,1001.90
2018-12-21T05:32:13.388Z,1001.91
2018-12-21T05:33:13.472Z,1001.91
2018-12-21T05:34:13.362Z,1001.97
2018-12-21T05:35:13.398Z,1001.97
2018-12-21T05:36:13.380Z,1001.99
2018-12-21T05:37:13.350Z,1002.01
2018-12-21T05:38:13.338Z,1001.93
2018-12-21T05:39:13.356Z,1001.92
2018-12-21T05:40:13.343Z,1001.83
2018-12-21T05:41:13.344Z,1001.79
2018-12-21T05:42:13.368Z,1001.86
2018-12-21T05:43:13.303Z,1001.91
2018-12-21T05:44:13.311Z,1001.92
2018-12-21T05:45:13.299Z,1001.97
2018-12-21T05:46:13.377Z,1001.90
2018-12-21T05:47:13.329Z,1001.89
2018-12-21T05:48:13.274Z,1001.88
2018-12-21T05:49:13.293Z,1001.83
2018-12-21T05:50:13.281Z,1001.85
2018-12-21T05:51:13.269Z,1001.81
2018-12-21T05:52:13.249Z,1001.80
2018-12-21T05:53:13.239Z,1001.73
2018-12-21T05:54:13.241Z,1001.68
2018-12-21T05:55:13.237Z,1001.71
2018-12-21T05:56:13.239Z,1001.59
2018-12-21T05:57:13.242Z,1001.61
2018-12-21T05:58:13.214Z,1001.61
2018-12-21T05:59:13.241Z,1001.55
2018-12-21T06:00:13.225Z,1001.51
2018-12-21T06:01:13.190Z,1001.53
2018-12-21T06:02:13.236Z,1001.49
2018-12-21T06:03:13.191Z,1001.50
2018-12-21T06:04:13.289Z,1001.53
2018-12-21T06:05:13.153Z,1001.45
2018-12-21T06:06:13.151Z,1001.45
2018-12-21T06:07:13.160Z,1001.49
2018-12-21T06:08:13.134Z,1001.40
2018-12-21T06:09:13.148Z,1001.40
2018-12-21T06:10:13.144Z,1001.33
2018-12-21T06:11:13.121Z,1001.37
2018-12-21T06:12:13.127Z,1001.33
2018-12-21T06:13:13.231Z,1001.25
2018-12-21T06:14:13.110Z,1001.26
2018-12-21T06:15:13.082Z,1001.28
2018-12-21T06:16:13.086Z,1001.21
2018-12-21T06:17:13.079Z,1001.16
2018-12-21T06:18:13.076Z,1001.13
2018-12-21T06:19:13.068Z,1001.07
2018-12-21T06:20:21.821Z,1001.04
2018-12-21T06:22:17.572Z,1000.92
2018-12-21T06:23:17.522Z,1000.93
2018-12-21T06:24:17.518Z,1000.92
2018-12-21T06:25:17.637Z,1000.94
2018-12-21T06:26:17.494Z,1000.87
2018-12-21T06:27:17.482Z,1000.82
2018-12-21T06:28:17.480Z,1000.75
2018-12-21T06:29:17.477Z,1000.69
2018-12-21T06:30:17.500Z,1000.72
2018-12-21T06:31:18.771Z,1000.62
2018-12-21T06:32:17.706Z,1000.49
2018-12-21T06:33:17.794Z,1000.53
2018-12-21T06:34:17.673Z,1000.49
2018-12-21T06:35:17.470Z,1000.48
2018-12-21T06:36:17.417Z,1000.44
2018-12-21T06:37:17.406Z,1000.35
2018-12-21T06:38:17.449Z,1000.31
2018-12-21T06:39:17.425Z,1000.27
2018-12-21T06:40:17.422Z,1000.27
2018-12-21T06:41:17.446Z,1000.25
2018-12-21T06:42:17.408Z,1000.27
2018-12-21T06:43:17.383Z,1000.31
2018-12-21T06:44:17.411Z,1000.28
2018-12-21T06:45:17.365Z,1000.29
2018-12-21T06:46:27.462Z,1000.27
2018-12-21T06:48:21.875Z,1000.31
2018-12-21T06:49:21.847Z,1000.20
2018-12-21T06:50:21.841Z,1000.26
2018-12-21T06:51:21.835Z,1000.21
2018-12-21T06:52:21.837Z,1000.16
2018-12-21T06:53:21.923Z,1000.18
2018-12-21T06:54:21.793Z,1000.22
2018-12-21T06:55:21.833Z,1000.18
2018-12-21T06:56:21.798Z,1000.20
2018-12-21T06:57:29.526Z,1000.16
2018-12-21T06:59:35.368Z,1000.04
2018-12-21T07:00:35.064Z,1000.17
2018-12-21T07:02:30.751Z,1000.08
2018-12-21T07:03:30.707Z,1000.04
2018-12-21T07:04:30.701Z,1000.12
2018-12-21T07:05:30.713Z,1000.00
2018-12-21T07:06:30.721Z,1000.03
2018-12-21T07:07:30.724Z,999.90
2018-12-21T07:08:30.880Z,999.94
2018-12-21T07:09:30.666Z,999.91
2018-12-21T07:10:30.657Z,999.82
2018-12-21T07:11:30.651Z,999.88
2018-12-21T07:12:30.654Z,999.83
2018-12-21T07:13:30.672Z,999.80
2018-12-21T07:14:30.639Z,999.86
2018-12-21T07:15:30.652Z,999.79
2018-12-21T07:16:30.640Z,999.81
2018-12-21T07:17:30.630Z,999.86
2018-12-21T07:18:30.662Z,999.87
2018-12-21T07:19:30.609Z,999.84
2018-12-21T07:20:30.610Z,999.81
2018-12-21T07:21:30.590Z,999.77
2018-12-21T07:22:30.619Z,999.84
2018-12-21T07:23:30.618Z,999.79
2018-12-21T07:24:30.585Z,999.71
2018-12-21T07:25:30.552Z,999.79
2018-12-21T07:26:30.543Z,999.82
2018-12-21T07:27:30.547Z,999.77
2018-12-21T07:28:30.551Z,999.72
2018-12-21T07:29:30.530Z,999.64
2018-12-21T07:30:30.531Z,999.72
2018-12-21T07:31:30.508Z,999.68
2018-12-21T07:32:30.499Z,999.77
2018-12-21T07:33:30.496Z,999.74
2018-12-21T07:34:30.494Z,999.79
2018-12-21T07:35:30.506Z,999.71
2018-12-21T07:36:30.520Z,999.62
2018-12-21T07:37:30.476Z,999.75
2018-12-21T07:38:30.507Z,999.72
2018-12-21T07:39:32.345Z,999.52
2018-12-21T07:40:30.458Z,999.58
2018-12-21T07:41:30.457Z,999.67
2018-12-21T07:42:30.449Z,999.62
2018-12-21T07:43:30.427Z,999.66
2018-12-21T07:44:30.455Z,999.53
2018-12-21T07:45:30.413Z,999.53
2018-12-21T07:46:30.425Z,999.54
2018-12-21T07:47:32.173Z,999.53
2018-12-21T07:48:30.414Z,999.53
2018-12-21T07:49:30.407Z,999.41
2018-12-21T07:50:30.401Z,999.39
2018-12-21T07:51:30.366Z,999.29
2018-12-21T07:52:30.362Z,999.50
2018-12-21T07:53:35.767Z,999.47
2018-12-21T07:54:30.344Z,999.51
2018-12-21T07:55:30.340Z,999.32
2018-12-21T07:56:30.364Z,999.44
2018-12-21T07:57:30.332Z,999.40
2018-12-21T07:58:30.322Z,999.46
2018-12-21T07:59:30.321Z,999.23
2018-12-21T08:00:30.325Z,999.27
2018-12-21T08:01:30.301Z,999.21
2018-12-21T08:02:30.286Z,999.34
2018-12-21T08:03:30.316Z,999.34
2018-12-21T08:04:30.408Z,999.45
2018-12-21T08:05:30.282Z,999.31
2018-12-21T08:06:30.280Z,999.23
2018-12-21T08:07:30.253Z,999.44
2018-12-21T08:08:30.269Z,999.29
2018-12-21T08:09:30.254Z,999.19
2018-12-21T08:10:30.238Z,999.15
2018-12-21T08:11:30.242Z,999.20
2018-12-21T08:12:30.215Z,999.12
2018-12-21T08:13:30.223Z,999.14
2018-12-21T08:14:30.217Z,999.16
2018-12-21T08:15:30.200Z,999.16
2018-12-21T08:16:30.192Z,999.05
2018-12-21T08:17:30.184Z,999.11
2018-12-21T08:18:30.207Z,999.05
2018-12-21T08:19:32.088Z,998.91
2018-12-21T08:20:30.218Z,998.98
2018-12-21T08:21:30.175Z,999.02
2018-12-21T08:22:30.215Z,999.02
2018-12-21T08:23:30.169Z,998.99
2018-12-21T08:24:30.145Z,998.95
2018-12-21T08:25:30.128Z,998.98
2018-12-21T08:26:30.140Z,998.85
2018-12-21T08:27:30.123Z,998.78
2018-12-21T08:28:30.126Z,998.74
2018-12-21T08:29:30.148Z,998.76
2018-12-21T08:30:30.180Z,998.67
2018-12-21T08:31:30.123Z,998.68
2018-12-21T08:32:30.160Z,998.52
2018-12-21T08:33:30.076Z,998.55
2018-12-21T08:34:30.075Z,998.55
2018-12-21T08:35:30.062Z,998.52
2018-12-21T08:36:30.063Z,998.62
2018-12-21T08:37:30.051Z,998.47
2018-12-21T08:38:30.056Z,998.54
2018-12-21T08:39:30.047Z,998.46
2018-12-21T08:40:30.075Z,998.42
2018-12-21T08:41:30.037Z,998.40
2018-12-21T08:42:30.006Z,998.39
2018-12-21T08:43:30.014Z,998.41
2018-12-21T08:44:29.990Z,998.38
2018-12-21T08:45:30.004Z,998.43
2018-12-21T08:46:29.979Z,998.42
2018-12-21T08:47:29.995Z,998.37
2018-12-21T08:48:29.990Z,998.51
2018-12-21T08:49:30.002Z,998.22
2018-12-21T08:50:29.966Z,998.28
2018-12-21T08:51:29.959Z,998.34
2018-12-21T08:52:29.964Z,998.42
2018-12-21T08:53:29.935Z,998.34
2018-12-21T08:54:29.960Z,998.27
2018-12-21T08:55:29.930Z,998.35
2018-12-21T08:56:38.591Z,998.36
2018-12-21T08:58:35.423Z,998.32
2018-12-21T08:59:35.434Z,998.33
2018-12-21T09:00:35.421Z,998.23
2018-12-21T09:01:35.537Z,998.33
2018-12-21T09:02:35.521Z,998.20
2018-12-21T09:03:35.461Z,998.10
2018-12-21T09:04:35.417Z,998.04
2018-12-21T09:05:35.362Z,998.07
2018-12-21T09:06:35.363Z,998.13
2018-12-21T09:07:37.145Z,998.07
2018-12-21T09:08:35.331Z,998.07
2018-12-21T09:09:35.348Z,997.96
2018-12-21T09:10:35.339Z,997.98
2018-12-21T09:11:35.359Z,997.86
2018-12-21T09:12:35.312Z,997.98
2018-12-21T09:13:35.339Z,997.84
2018-12-21T09:14:35.282Z,997.84
2018-12-21T09:15:35.276Z,997.89
2018-12-21T09:16:35.272Z,997.86
2018-12-21T09:17:35.296Z,997.83
2018-12-21T09:18:35.255Z,997.81
2018-12-21T09:19:35.312Z,997.87
2018-12-21T09:20:35.244Z,997.95
2018-12-21T09:21:35.258Z,997.85
2018-12-21T09:22:35.274Z,997.90
2018-12-21T09:23:35.221Z,997.79
2018-12-21T09:24:35.238Z,997.81
2018-12-21T09:25:35.208Z,997.85
2018-12-21T09:26:35.202Z,997.84
2018-12-21T09:27:35.207Z,997.86
2018-12-21T09:28:35.180Z,997.91
2018-12-21T09:29:35.182Z,997.84
2018-12-21T09:30:35.190Z,997.91
2018-12-21T09:31:35.274Z,997.84
2018-12-21T09:32:35.214Z,997.89
2018-12-21T09:33:35.176Z,997.84
2018-12-21T09:34:35.159Z,997.79
2018-12-21T09:35:35.144Z,997.93
2018-12-21T09:36:35.129Z,997.80
2018-12-21T09:37:35.128Z,997.81
2018-12-21T09:38:35.125Z,997.70
2018-12-21T09:39:35.143Z,997.87
2018-12-21T09:40:35.120Z,997.82
2018-12-21T09:41:35.099Z,997.93
2018-12-21T09:42:35.102Z,997.83
2018-12-21T09:43:35.116Z,997.70
2018-12-21T09:44:35.078Z,997.82
2018-12-21T09:45:35.075Z,997.83
2018-12-21T09:46:35.095Z,997.75
2018-12-21T09:47:35.068Z,997.62
2018-12-21T09:48:35.078Z,997.73
2018-12-21T09:49:35.046Z,997.59
2018-12-21T09:50:35.062Z,997.71
2018-12-21T09:51:35.033Z,997.68
2018-12-21T09:52:35.061Z,997.66
2018-12-21T09:53:35.059Z,997.58
2018-12-21T09:54:35.016Z,997.63
2018-12-21T09:55:35.054Z,997.66
2018-12-21T09:56:34.997Z,997.45
2018-12-21T09:57:35.005Z,997.53
2018-12-21T09:58:35.019Z,997.57
2018-12-21T09:59:34.984Z,997.48
2018-12-21T10:00:35.030Z,997.46
2018-12-21T10:01:34.972Z,997.39
2018-12-21T10:02:35.904Z,997.33
2018-12-21T10:03:34.959Z,997.46
2018-12-21T10:04:34.963Z,997.36
2018-12-21T10:05:34.984Z,997.28
2018-12-21T10:06:34.951Z,997.25
2018-12-21T10:07:34.975Z,997.15
2018-12-21T10:08:34.925Z,997.16
2018-12-21T10:09:34.921Z,997.11
2018-12-21T10:10:34.916Z,997.10
2018-12-21T10:11:34.931Z,997.12
2018-12-21T10:12:34.937Z,997.24
2018-12-21T10:13:34.920Z,997.22
2018-12-21T10:14:34.914Z,997.21
2018-12-21T10:15:34.885Z,997.06
2018-12-21T10:16:34.870Z,997.13
2018-12-21T10:17:34.862Z,997.17
2018-12-21T10:18:34.895Z,997.10
2018-12-21T10:19:34.861Z,997.06
2018-12-21T10:20:34.868Z,997.03
2018-12-21T10:21:34.897Z,997.05
2018-12-21T10:22:34.831Z,997.02
2018-12-21T10:23:34.855Z,997.05
2018-12-21T10:24:34.864Z,996.94
2018-12-21T10:25:34.814Z,997.06
2018-12-21T10:26:34.873Z,997.11
2018-12-21T10:27:34.826Z,996.93
2018-12-21T10:28:34.819Z,996.99
2018-12-21T10:29:34.789Z,997.14
2018-12-21T10:30:34.844Z,997.07
2018-12-21T10:31:34.849Z,996.99
2018-12-21T10:32:34.816Z,997.07
2018-12-21T10:33:34.764Z,997.02
2018-12-21T10:34:34.810Z,996.98
2018-12-21T10:35:34.793Z,996.87
2018-12-21T10:36:34.763Z,996.95
2018-12-21T10:37:34.777Z,997.03
2018-12-21T10:38:34.756Z,996.91
2018-12-21T10:39:34.765Z,996.94
2018-12-21T10:40:43.410Z,996.96
2018-12-21T10:42:39.252Z,996.97
2018-12-21T10:43:39.205Z,996.97
2018-12-21T10:45:44.784Z,996.85
2018-12-21T10:46:44.757Z,996.97
2018-12-21T10:47:44.819Z,997.12
2018-12-21T10:48:44.691Z,996.94
2018-12-21T10:49:44.739Z,996.98
2018-12-21T10:50:44.666Z,997.06
2018-12-21T10:53:16.879Z,997.03
2018-12-21T10:54:26.983Z,996.93
2018-12-21T10:56:21.260Z,997.03
2018-12-21T10:57:30.895Z,997.03
2018-12-21T10:59:25.760Z,996.91
2018-12-21T11:00:25.689Z,996.96
2018-12-21T11:01:25.697Z,996.92
2018-12-21T11:02:25.707Z,996.90
2018-12-21T11:03:34.471Z,996.92
2018-12-21T11:05:30.213Z,996.92
2018-12-21T11:06:30.162Z,996.94
2018-12-21T11:07:30.136Z,996.92
2018-12-21T11:08:30.136Z,997.05
2018-12-21T11:09:30.140Z,996.95
2018-12-21T11:10:30.103Z,996.73
2018-12-21T11:11:30.108Z,996.68
2018-12-21T11:12:30.092Z,996.85
2018-12-21T11:13:30.110Z,996.77
2018-12-21T11:14:30.091Z,996.78
2018-12-21T11:15:30.104Z,996.63
2018-12-21T11:16:30.095Z,996.70
2018-12-21T11:17:30.106Z,996.54
2018-12-21T11:18:30.048Z,996.79
2018-12-21T11:19:30.136Z,996.74
2018-12-21T11:20:30.062Z,996.69
2018-12-21T11:21:30.054Z,996.69
2018-12-21T11:22:30.031Z,996.69
2018-12-21T11:23:38.692Z,996.63
2018-12-21T11:25:42.196Z,996.51
2018-12-21T11:26:43.163Z,996.58
2018-12-21T11:28:38.982Z,996.54
2018-12-21T11:29:38.972Z,996.60
2018-12-21T11:30:38.956Z,996.60
2018-12-21T11:31:38.951Z,996.49
2018-12-21T11:32:47.583Z,996.72
2018-12-21T11:34:54.958Z,996.63
2018-12-21T11:35:54.674Z,996.57
2018-12-21T11:36:54.695Z,996.54
2018-12-21T11:37:54.660Z,996.53
2018-12-21T11:38:54.687Z,996.55
2018-12-21T11:39:54.682Z,996.42
2018-12-21T11:40:54.660Z,996.55
2018-12-21T11:41:54.638Z,996.50
2018-12-21T11:42:54.668Z,996.53
2018-12-21T11:43:54.627Z,996.33
2018-12-21T11:44:54.621Z,996.33
2018-12-21T11:45:54.626Z,996.47
2018-12-21T11:46:54.617Z,996.45
2018-12-21T11:47:54.596Z,996.38
2018-12-21T11:48:54.592Z,996.41
2018-12-21T11:49:54.597Z,996.43
2018-12-21T11:50:54.694Z,996.41
2018-12-21T11:51:54.575Z,996.29
2018-12-21T11:52:54.576Z,996.33
2018-12-21T11:53:54.589Z,996.30
2018-12-21T11:54:54.590Z,996.38
2018-12-21T11:55:54.574Z,996.30
2018-12-21T11:56:54.544Z,996.44
2018-12-21T11:57:54.534Z,996.44
2018-12-21T11:58:54.548Z,996.31
2018-12-21T11:59:54.530Z,996.46
2018-12-21T12:00:54.559Z,996.43
2018-12-21T12:01:54.578Z,996.47
2018-12-21T12:02:54.503Z,996.32
2018-12-21T12:03:54.530Z,996.40
2018-12-21T12:04:54.512Z,996.24
2018-12-21T12:05:54.488Z,996.25
2018-12-21T12:06:54.478Z,996.28
2018-12-21T12:07:54.494Z,996.25
2018-12-21T12:08:54.484Z,996.14
2018-12-21T12:09:54.471Z,996.33
2018-12-21T12:10:54.571Z,996.23
2018-12-21T12:11:54.496Z,996.14
2018-12-21T12:12:54.461Z,996.37
2018-12-21T12:13:54.476Z,996.32
2018-12-21T12:14:54.454Z,996.51
2018-12-21T12:15:54.423Z,996.26
2018-12-21T12:16:54.452Z,996.23
2018-12-21T12:17:54.427Z,996.01
2018-12-21T12:18:54.412Z,996.30
2018-12-21T12:19:54.402Z,996.18
2018-12-21T12:20:54.419Z,996.19
2018-12-21T12:21:54.435Z,996.12
2018-12-21T12:22:54.380Z,996.30
2018-12-21T12:23:54.423Z,996.24
2018-12-21T12:24:55.429Z,996.28
2018-12-21T12:25:54.384Z,996.22
2018-12-21T12:26:54.398Z,996.21
2018-12-21T12:27:54.346Z,996.32
2018-12-21T12:28:54.399Z,996.22
2018-12-21T12:29:54.334Z,996.23
2018-12-21T12:30:54.361Z,996.21
2018-12-21T12:31:54.329Z,996.32
2018-12-21T12:32:54.327Z,996.28
2018-12-21T12:33:54.316Z,996.27
2018-12-21T12:34:54.321Z,996.25
2018-12-21T12:35:54.392Z,996.18
2018-12-21T12:36:54.294Z,996.17
2018-12-21T12:37:54.284Z,996.20
2018-12-21T12:38:54.273Z,996.17
2018-12-21T12:39:54.290Z,996.13
2018-12-21T12:40:54.272Z,996.04
2018-12-21T12:41:54.277Z,996.10
2018-12-21T12:42:54.252Z,996.12
2018-12-21T12:43:54.272Z,996.19
2018-12-21T12:44:54.253Z,996.38
2018-12-21T12:45:54.247Z,996.17
2018-12-21T12:46:54.248Z,996.23
2018-12-21T12:47:54.260Z,996.21
2018-12-21T12:48:54.224Z,996.22
2018-12-21T12:50:03.879Z,996.21
2018-12-21T12:51:48.643Z,996.21
2018-12-21T12:52:48.623Z,996.19
2018-12-21T12:53:48.626Z,996.27